createdAt,value
2023-01-11T00:00:03.421Z,24.93
2023-01-11T00:05:10.604Z,24.99
2023-01-11T00:10:17.805Z,25.00
2023-01-11T00:15:25.031Z,25.07
2023-01-11T00:20:32.211Z,25.17
2023-01-11T00:25:39.432Z,25.13
2023-01-11T00:30:46.667Z,24.85
2023-01-11T00:35:53.830Z,25.18
2023-01-11T00:41:01.068Z,24.69
2023-01-11T00:46:08.292Z,25.24
2023-01-11T00:51:15.385Z,25.23
2023-01-11T00:56:22.571Z,25.33
2023-01-11T01:01:29.841Z,25.51
2023-01-11T01:06:36.957Z,25.49
2023-01-11T01:11:44.180Z,25.69
2023-01-11T01:16:51.363Z,25.61
2023-01-11T01:21:58.593Z,25.61
2023-01-11T01:27:05.814Z,25.92
2023-01-11T01:32:12.925Z,25.98
2023-01-11T01:37:20.056Z,26.22
2023-01-11T01:42:27.288Z,26.14
2023-01-11T01:47:34.388Z,26.28
2023-01-11T01:52:41.583Z,26.43
2023-01-11T01:57:48.825Z,26.13
2023-01-11T02:02:56.193Z,26.45
2023-01-11T02:08:03.217Z,26.66
2023-01-11T02:13:10.500Z,26.01
2023-01-11T02:18:17.626Z,26.25
2023-01-11T02:23:24.857Z,25.76
2023-01-11T02:28:32.060Z,24.67
2023-01-11T02:33:39.368Z,25.63
2023-01-11T02:38:46.559Z,26.25
2023-01-11T02:43:53.780Z,26.14
2023-01-11T02:49:00.995Z,25.99
2023-01-11T02:54:08.169Z,26.12
2023-01-11T02:59:15.433Z,26.35
2023-01-11T03:04:22.576Z,26.45
2023-01-11T03:09:29.778Z,26.77
2023-01-11T03:14:37.051Z,27.13
2023-01-11T03:19:44.169Z,27.06
2023-01-11T03:24:51.378Z,27.19
2023-01-11T03:29:58.607Z,27.15
2023-01-11T03:35:05.787Z,26.87
2023-01-11T03:40:13.036Z,26.48
2023-01-11T03:45:20.298Z,26.87
2023-01-11T03:50:27.419Z,26.39
2023-01-11T03:55:34.570Z,26.94
2023-01-11T04:00:41.819Z,27.07
2023-01-11T04:05:48.931Z,27.18
2023-01-11T04:10:56.172Z,27.24
2023-01-11T04:16:03.409Z,27.28
2023-01-11T04:21:10.693Z,26.74
2023-01-11T04:26:17.958Z,27.35
2023-01-11T04:31:25.383Z,26.85
2023-01-11T04:36:32.446Z,26.92
2023-01-11T04:41:39.643Z,27.14
2023-01-11T04:46:46.799Z,27.15
2023-01-11T04:51:53.953Z,26.70
2023-01-11T04:57:01.178Z,27.22
2023-01-11T05:02:08.385Z,26.86
2023-01-11T05:07:15.522Z,27.33
2023-01-11T05:12:22.694Z,27.37
2023-01-11T05:17:29.953Z,26.53
2023-01-11T05:22:37.331Z,27.12
2023-01-11T05:27:44.512Z,26.61
2023-01-11T05:32:51.737Z,25.86
2023-01-11T05:37:58.912Z,27.36
2023-01-11T05:43:06.061Z,27.42
2023-01-11T05:48:13.260Z,27.55
2023-01-11T05:53:20.446Z,27.41
2023-01-11T05:58:27.810Z,27.25
2023-01-11T06:03:35.081Z,27.11
2023-01-11T06:08:42.283Z,26.97
2023-01-11T06:13:49.458Z,26.72
2023-01-11T06:18:56.756Z,26.63
2023-01-11T06:24:03.989Z,26.52
2023-01-11T06:29:11.178Z,26.37
2023-01-11T06:34:18.663Z,26.18
2023-01-11T06:39:25.845Z,26.15
2023-01-11T06:44:33.158Z,25.96
2023-01-11T06:49:40.345Z,25.86
2023-01-11T06:54:47.505Z,25.75
2023-01-11T06:59:54.740Z,25.67
2023-01-11T07:05:01.981Z,25.58
2023-01-11T07:10:09.139Z,25.46
2023-01-11T07:15:16.335Z,25.42
2023-01-11T07:20:23.546Z,25.36
2023-01-11T07:25:30.733Z,25.24
2023-01-11T07:30:55.431Z,25.22
2023-01-11T07:35:45.160Z,25.08
2023-01-11T07:40:52.337Z,24.90
2023-01-11T07:45:59.710Z,24.98
2023-01-11T07:51:06.805Z,24.92
2023-01-11T07:56:13.964Z,24.92
2023-01-11T08:01:21.176Z,24.83
2023-01-11T08:06:28.405Z,24.67
2023-01-11T08:11:35.616Z,24.67
2023-01-11T08:16:42.886Z,24.66
2023-01-11T08:21:50.115Z,24.63
2023-01-11T08:26:57.333Z,24.65
2023-01-11T08:32:04.464Z,24.53
2023-01-11T08:37:11.801Z,24.62
2023-01-11T08:42:18.921Z,24.49
2023-01-11T08:47:26.149Z,24.43
2023-01-11T08:52:33.363Z,24.40
2023-01-11T08:57:40.558Z,24.37
2023-01-11T09:02:47.719Z,24.38
2023-01-11T09:07:54.961Z,24.41
2023-01-11T09:13:02.187Z,25.90
2023-01-11T09:18:09.342Z,25.80
2023-01-11T09:23:16.662Z,25.50
2023-01-11T09:28:23.732Z,25.55
2023-01-11T09:33:30.964Z,25.26
2023-01-11T09:38:38.194Z,25.31
2023-01-11T09:43:45.384Z,25.23
2023-01-11T09:48:52.571Z,25.27
2023-01-11T09:53:59.834Z,25.18
2023-01-11T09:59:07.004Z,25.36
2023-01-11T10:04:14.167Z,25.40
2023-01-11T10:18:32.991Z,25.50
2023-01-11T10:19:40.382Z,25.55
2023-01-11T10:24:43.065Z,25.60
2023-01-11T10:29:50.221Z,25.64
2023-01-11T10:34:57.425Z,25.76
2023-01-11T10:40:04.652Z,25.75
2023-01-11T10:45:11.835Z,25.81
2023-01-11T10:50:19.009Z,25.85
2023-01-11T10:55:26.301Z,25.92
2023-01-11T11:00:33.587Z,25.93
2023-01-11T11:05:40.749Z,25.94
2023-01-11T11:10:47.997Z,26.02
2023-01-11T11:15:55.327Z,25.89
2023-01-11T11:21:02.361Z,26.00
2023-01-11T11:26:09.581Z,25.79
2023-01-11T11:31:22.755Z,26.07
2023-01-11T11:36:29.937Z,26.17
2023-01-11T11:41:37.159Z,25.85
2023-01-11T11:46:44.426Z,26.13
2023-01-11T11:51:51.651Z,25.95
2023-01-11T11:56:58.940Z,26.15
2023-01-11T12:02:06.190Z,26.38
2023-01-11T12:07:13.283Z,26.66
2023-01-11T12:12:20.480Z,26.70
2023-01-11T12:17:27.679Z,26.79
2023-01-11T12:22:34.854Z,26.69
2023-01-11T12:27:42.111Z,26.77
2023-01-11T12:32:49.290Z,26.74
2023-01-11T12:37:56.516Z,26.67
2023-01-11T12:43:03.929Z,26.63
2023-01-11T12:48:11.022Z,26.63
2023-01-11T12:53:18.214Z,26.74
2023-01-11T12:58:25.417Z,26.73
2023-01-11T13:03:32.587Z,26.74
2023-01-11T13:08:39.779Z,26.35
2023-01-11T13:13:47.038Z,26.94
2023-01-11T13:18:54.279Z,26.92
2023-01-11T13:24:01.545Z,27.05
2023-01-11T13:29:08.749Z,26.89
2023-01-11T13:34:15.959Z,27.02
2023-01-11T13:39:23.145Z,27.15
2023-01-11T13:44:30.392Z,27.25
2023-01-11T13:49:37.538Z,27.29
2023-01-11T13:54:44.765Z,27.46
2023-01-11T13:59:51.981Z,27.52
2023-01-11T14:04:59.163Z,27.56
2023-01-11T14:10:06.394Z,27.57
2023-01-11T14:15:13.571Z,27.71
2023-01-11T14:20:20.719Z,27.75
2023-01-11T14:25:27.887Z,27.74
2023-01-11T14:30:35.163Z,27.80
2023-01-11T14:35:42.359Z,27.86
2023-01-11T14:40:49.637Z,27.97
2023-01-11T14:45:57.074Z,28.08
2023-01-11T14:51:04.011Z,28.18
2023-01-11T14:56:11.214Z,28.23
2023-01-11T15:01:18.494Z,28.34
2023-01-11T15:06:25.902Z,28.48
2023-01-11T15:11:33.159Z,28.25
2023-01-11T15:16:40.455Z,28.30
2023-01-11T15:21:47.643Z,28.56
2023-01-11T15:26:54.863Z,28.44
2023-01-11T15:32:02.083Z,28.36
2023-01-11T15:37:09.258Z,28.40
2023-01-11T15:42:16.519Z,28.29
2023-01-11T15:47:23.973Z,28.37
2023-01-11T15:52:30.980Z,28.35
2023-01-11T15:57:38.193Z,28.37
2023-01-11T16:02:45.515Z,28.30
2023-01-11T16:07:52.617Z,28.35
2023-01-11T16:12:59.865Z,28.42
2023-01-11T16:18:07.168Z,28.39
2023-01-11T16:23:14.369Z,28.42
2023-01-11T16:28:21.516Z,28.51
2023-01-11T16:33:28.750Z,28.47
2023-01-11T16:38:35.943Z,28.57
2023-01-11T16:43:43.151Z,28.61
2023-01-11T16:48:50.376Z,28.75
2023-01-11T16:53:57.572Z,28.75
2023-01-11T16:59:04.724Z,28.72
2023-01-11T17:04:15.992Z,28.69
2023-01-11T17:09:19.782Z,28.83
2023-01-11T17:14:26.387Z,28.79
2023-01-11T17:19:33.613Z,28.79
2023-01-11T17:24:40.852Z,28.70
2023-01-11T17:29:47.998Z,28.78
2023-01-11T17:34:55.380Z,28.85
2023-01-11T17:40:02.386Z,29.10
2023-01-11T17:45:09.573Z,28.80
2023-01-11T17:50:16.796Z,28.89
2023-01-11T17:55:23.967Z,28.89
2023-01-11T18:00:31.222Z,29.02
2023-01-11T18:05:38.405Z,29.06
2023-01-11T18:10:45.600Z,29.12
2023-01-11T18:15:52.757Z,29.11
2023-01-11T18:21:00.028Z,29.36
2023-01-11T18:26:07.249Z,29.64
2023-01-11T18:31:14.657Z,29.76
2023-01-11T18:36:22.165Z,29.73
2023-01-11T18:41:29.571Z,29.80
2023-01-11T18:46:38.069Z,29.67
2023-01-11T18:51:45.423Z,29.72
2023-01-11T18:56:55.794Z,29.76
2023-01-11T19:02:16.344Z,29.74
2023-01-11T19:07:11.587Z,29.76
2023-01-11T19:12:19.162Z,29.74
2023-01-11T19:17:26.578Z,29.86
2023-01-11T19:22:34.051Z,29.97
2023-01-11T19:27:41.374Z,29.95
2023-01-11T19:32:48.845Z,30.26
2023-01-11T19:37:56.490Z,30.84
2023-01-11T19:43:03.805Z,30.87
2023-01-11T19:48:11.023Z,30.79
2023-01-11T19:53:18.630Z,30.61
2023-01-11T19:58:26.310Z,30.26
2023-01-11T20:03:33.925Z,30.24
2023-01-11T20:08:41.668Z,29.99
2023-01-11T20:13:49.059Z,29.86
2023-01-11T20:18:56.290Z,29.85
2023-01-11T20:24:03.637Z,30.02
2023-01-11T20:29:10.687Z,29.88
2023-01-11T20:34:18.184Z,29.45
2023-01-11T20:39:25.598Z,29.22
2023-01-11T20:44:32.816Z,29.07
2023-01-11T20:49:40.297Z,28.86
2023-01-11T20:54:47.650Z,28.72
2023-01-11T20:59:54.787Z,28.80
2023-01-11T21:05:02.019Z,29.28
2023-01-11T21:10:09.266Z,29.24
2023-01-11T21:15:16.461Z,29.26
2023-01-11T21:20:23.705Z,29.25
2023-01-11T21:25:30.949Z,29.06
2023-01-11T21:30:38.152Z,28.76
2023-01-11T21:35:45.340Z,28.89
2023-01-11T21:40:52.574Z,28.83
2023-01-11T21:45:59.755Z,28.68
2023-01-11T21:51:06.924Z,28.61
2023-01-11T21:56:14.185Z,28.96
2023-01-11T22:01:21.391Z,28.33
2023-01-11T22:06:28.589Z,28.21
2023-01-11T22:11:35.821Z,27.61
2023-01-11T22:16:43.073Z,27.25
2023-01-11T22:21:50.149Z,27.02
2023-01-11T22:26:57.446Z,26.98
2023-01-11T22:32:04.563Z,26.78
2023-01-11T22:37:11.818Z,26.70
2023-01-11T22:42:19.060Z,26.68
2023-01-11T22:47:26.442Z,26.76
2023-01-11T22:52:33.627Z,26.84
2023-01-11T22:57:40.871Z,26.90
2023-01-11T23:02:48.068Z,26.93
2023-01-11T23:07:55.284Z,26.85
2023-01-11T23:13:02.575Z,26.92
2023-01-11T23:18:09.874Z,26.94
2023-01-11T23:23:17.071Z,26.95
2023-01-11T23:28:24.324Z,26.89
2023-01-11T23:33:31.466Z,26.91
2023-01-11T23:38:38.706Z,26.93
2023-01-11T23:43:45.923Z,26.92
2023-01-11T23:48:53.137Z,26.84
2023-01-11T23:54:00.315Z,26.80
2023-01-11T23:59:07.558Z,26.81
